sensor_id;sensor_type;location;lat;lon;timestamp;temperature;humidity
46754;DHT22;32500;50.620;3.400;2022-07-10T00:00:35;23.80;57.20
46754;DHT22;32500;50.620;3.400;2022-07-10T00:03:02;23.80;57.10
46754;DHT22;32500;50.620;3.400;2022-07-10T00:05:28;23.80;57.10
46754;DHT22;32500;50.620;3.400;2022-07-10T00:07:53;23.80;57.10
46754;DHT22;32500;50.620;3.400;2022-07-10T00:10:20;23.80;57.10
46754;DHT22;32500;50.620;3.400;2022-07-10T00:12:47;23.80;57.20
46754;DHT22;32500;50.620;3.400;2022-07-10T00:15:13;23.70;57.10
46754;DHT22;32500;50.620;3.400;2022-07-10T00:17:39;23.70;57.00
46754;DHT22;32500;50.620;3.400;2022-07-10T00:20:06;23.80;57.20
46754;DHT22;32500;50.620;3.400;2022-07-10T00:22:36;23.70;57.10
46754;DHT22;32500;50.620;3.400;2022-07-10T00:25:03;23.70;57.10
46754;DHT22;32500;50.620;3.400;2022-07-10T00:27:29;23.70;57.10
46754;DHT22;32500;50.620;3.400;2022-07-10T00:29:55;23.70;57.20
46754;DHT22;32500;50.620;3.400;2022-07-10T00:32:21;23.70;57.20
46754;DHT22;32500;50.620;3.400;2022-07-10T00:34:47;23.70;57.10
46754;DHT22;32500;50.620;3.400;2022-07-10T00:37:12;23.70;57.10
46754;DHT22;32500;50.620;3.400;2022-07-10T00:39:38;23.70;57.10
46754;DHT22;32500;50.620;3.400;2022-07-10T00:42:11;23.70;57.20
46754;DHT22;32500;50.620;3.400;2022-07-10T00:44:37;23.60;57.20
46754;DHT22;32500;50.620;3.400;2022-07-10T00:47:04;23.60;57.10
46754;DHT22;32500;50.620;3.400;2022-07-10T00:49:31;23.60;57.10
46754;DHT22;32500;50.620;3.400;2022-07-10T00:51:58;23.60;57.10
46754;DHT22;32500;50.620;3.400;2022-07-10T00:54:25;23.60;57.20
46754;DHT22;32500;50.620;3.400;2022-07-10T00:56:51;23.50;57.20
46754;DHT22;32500;50.620;3.400;2022-07-10T00:59:18;23.60;57.20
46754;DHT22;32500;50.620;3.400;2022-07-10T01:01:44;23.60;57.30
46754;DHT22;32500;50.620;3.400;2022-07-10T01:04:10;23.50;57.20
46754;DHT22;32500;50.620;3.400;2022-07-10T01:06:36;23.60;57.30
46754;DHT22;32500;50.620;3.400;2022-07-10T01:09:02;23.50;57.20
46754;DHT22;32500;50.620;3.400;2022-07-10T01:11:28;23.50;57.30
46754;DHT22;32500;50.620;3.400;2022-07-10T01:13:54;23.50;57.30
46754;DHT22;32500;50.620;3.400;2022-07-10T01:16:21;23.40;57.30
46754;DHT22;32500;50.620;3.400;2022-07-10T01:18:47;23.40;57.40
46754;DHT22;32500;50.620;3.400;2022-07-10T01:21:30;23.40;57.30
46754;DHT22;32500;50.620;3.400;2022-07-10T01:23:57;23.40;57.40
46754;DHT22;32500;50.620;3.400;2022-07-10T01:26:23;23.40;57.30
46754;DHT22;32500;50.620;3.400;2022-07-10T01:28:51;23.40;57.50
46754;DHT22;32500;50.620;3.400;2022-07-10T01:31:18;23.40;57.50
46754;DHT22;32500;50.620;3.400;2022-07-10T01:33:45;23.40;57.50
46754;DHT22;32500;50.620;3.400;2022-07-10T01:36:11;23.40;57.30
46754;DHT22;32500;50.620;3.400;2022-07-10T01:38:37;23.40;57.50
46754;DHT22;32500;50.620;3.400;2022-07-10T01:41:02;23.40;57.40
46754;DHT22;32500;50.620;3.400;2022-07-10T01:43:28;23.30;57.50
46754;DHT22;32500;50.620;3.400;2022-07-10T01:45:54;23.30;57.50
46754;DHT22;32500;50.620;3.400;2022-07-10T01:48:20;23.30;57.60
46754;DHT22;32500;50.620;3.400;2022-07-10T01:50:45;23.30;57.50
46754;DHT22;32500;50.620;3.400;2022-07-10T01:53:11;23.30;57.50
46754;DHT22;32500;50.620;3.400;2022-07-10T01:55:37;23.20;57.60
46754;DHT22;32500;50.620;3.400;2022-07-10T01:58:02;23.20;57.70
46754;DHT22;32500;50.620;3.400;2022-07-10T02:00:28;23.20;57.80
46754;DHT22;32500;50.620;3.400;2022-07-10T02:02:54;23.20;57.60
46754;DHT22;32500;50.620;3.400;2022-07-10T02:05:38;23.20;57.60
46754;DHT22;32500;50.620;3.400;2022-07-10T02:08:04;23.20;57.70
46754;DHT22;32500;50.620;3.400;2022-07-10T02:10:31;23.20;57.50
46754;DHT22;32500;50.620;3.400;2022-07-10T02:12:57;23.20;57.60
46754;DHT22;32500;50.620;3.400;2022-07-10T02:15:23;23.20;57.70
46754;DHT22;32500;50.620;3.400;2022-07-10T02:17:49;23.10;57.60
46754;DHT22;32500;50.620;3.400;2022-07-10T02:20:15;23.20;57.70
46754;DHT22;32500;50.620;3.400;2022-07-10T02:22:41;23.10;57.70
46754;DHT22;32500;50.620;3.400;2022-07-10T02:25:08;23.10;57.70
46754;DHT22;32500;50.620;3.400;2022-07-10T02:27:34;23.10;57.70
46754;DHT22;32500;50.620;3.400;2022-07-10T02:29:59;23.10;57.70
46754;DHT22;32500;50.620;3.400;2022-07-10T02:32:25;23.10;57.80
46754;DHT22;32500;50.620;3.400;2022-07-10T02:34:50;23.10;57.80
46754;DHT22;32500;50.620;3.400;2022-07-10T02:37:16;23.10;57.70
46754;DHT22;32500;50.620;3.400;2022-07-10T02:39:42;23.10;58.40
46754;DHT22;32500;50.620;3.400;2022-07-10T02:42:07;23.00;57.70
46754;DHT22;32500;50.620;3.400;2022-07-10T02:44:33;23.00;57.80
46754;DHT22;32500;50.620;3.400;2022-07-10T02:46:59;23.00;57.90
46754;DHT22;32500;50.620;3.400;2022-07-10T02:49:24;23.00;57.90
46754;DHT22;32500;50.620;3.400;2022-07-10T02:51:50;23.00;57.90
46754;DHT22;32500;50.620;3.400;2022-07-10T02:54:16;23.00;58.00
46754;DHT22;32500;50.620;3.400;2022-07-10T02:56:42;23.00;58.00
46754;DHT22;32500;50.620;3.400;2022-07-10T02:59:07;22.90;58.00
46754;DHT22;32500;50.620;3.400;2022-07-10T03:01:33;22.90;58.00
46754;DHT22;32500;50.620;3.400;2022-07-10T03:03:59;22.90;57.90
46754;DHT22;32500;50.620;3.400;2022-07-10T03:06:26;22.90;57.90
46754;DHT22;32500;50.620;3.400;2022-07-10T03:08:52;22.90;58.00
46754;DHT22;32500;50.620;3.400;2022-07-10T03:11:18;22.90;57.90
46754;DHT22;32500;50.620;3.400;2022-07-10T03:13:44;22.90;57.90
46754;DHT22;32500;50.620;3.400;2022-07-10T03:16:09;22.90;57.80
46754;DHT22;32500;50.620;3.400;2022-07-10T03:18:35;22.90;57.90
46754;DHT22;32500;50.620;3.400;2022-07-10T03:21:00;22.80;58.00
46754;DHT22;32500;50.620;3.400;2022-07-10T03:23:26;22.90;58.00
46754;DHT22;32500;50.620;3.400;2022-07-10T03:25:52;22.80;58.00
46754;DHT22;32500;50.620;3.400;2022-07-10T03:28:17;22.80;57.90
46754;DHT22;32500;50.620;3.400;2022-07-10T03:30:43;22.80;57.90
46754;DHT22;32500;50.620;3.400;2022-07-10T03:33:08;22.80;57.90
46754;DHT22;32500;50.620;3.400;2022-07-10T03:35:34;22.80;57.90
46754;DHT22;32500;50.620;3.400;2022-07-10T03:38:00;22.80;58.00
46754;DHT22;32500;50.620;3.400;2022-07-10T03:40:25;22.80;58.10
46754;DHT22;32500;50.620;3.400;2022-07-10T03:42:52;22.80;58.10
46754;DHT22;32500;50.620;3.400;2022-07-10T03:45:17;22.70;58.10
46754;DHT22;32500;50.620;3.400;2022-07-10T03:47:43;22.80;58.10
46754;DHT22;32500;50.620;3.400;2022-07-10T03:50:09;22.70;58.10
46754;DHT22;32500;50.620;3.400;2022-07-10T03:52:35;22.70;58.20
46754;DHT22;32500;50.620;3.400;2022-07-10T03:55:01;22.70;58.20
46754;DHT22;32500;50.620;3.400;2022-07-10T03:57:26;22.70;58.20
46754;DHT22;32500;50.620;3.400;2022-07-10T04:00:11;22.70;58.20
46754;DHT22;32500;50.620;3.400;2022-07-10T04:02:37;22.70;58.00
46754;DHT22;32500;50.620;3.400;2022-07-10T04:05:09;22.70;57.90
46754;DHT22;32500;50.620;3.400;2022-07-10T04:07:37;22.70;58.00
46754;DHT22;32500;50.620;3.400;2022-07-10T04:10:03;22.70;58.10
46754;DHT22;32500;50.620;3.400;2022-07-10T04:12:29;22.70;58.10
46754;DHT22;32500;50.620;3.400;2022-07-10T04:14:55;22.70;57.90
46754;DHT22;32500;50.620;3.400;2022-07-10T04:17:21;22.70;57.90
46754;DHT22;32500;50.620;3.400;2022-07-10T04:19:47;22.80;57.80
46754;DHT22;32500;50.620;3.400;2022-07-10T04:22:13;22.80;57.70
46754;DHT22;32500;50.620;3.400;2022-07-10T04:24:39;22.80;57.70
46754;DHT22;32500;50.620;3.400;2022-07-10T04:27:05;22.80;57.60
46754;DHT22;32500;50.620;3.400;2022-07-10T04:29:32;22.80;57.50
46754;DHT22;32500;50.620;3.400;2022-07-10T04:31:57;22.80;57.50
46754;DHT22;32500;50.620;3.400;2022-07-10T04:34:23;22.80;57.70
46754;DHT22;32500;50.620;3.400;2022-07-10T04:36:49;22.70;57.60
46754;DHT22;32500;50.620;3.400;2022-07-10T04:39:14;22.80;58.00
46754;DHT22;32500;50.620;3.400;2022-07-10T04:41:40;22.80;57.50
46754;DHT22;32500;50.620;3.400;2022-07-10T04:44:06;22.80;57.60
46754;DHT22;32500;50.620;3.400;2022-07-10T04:46:31;22.80;57.70
46754;DHT22;32500;50.620;3.400;2022-07-10T04:48:57;22.80;57.60
46754;DHT22;32500;50.620;3.400;2022-07-10T04:51:22;22.80;57.60
46754;DHT22;32500;50.620;3.400;2022-07-10T04:53:49;22.80;57.60
46754;DHT22;32500;50.620;3.400;2022-07-10T04:56:15;22.80;57.50
46754;DHT22;32500;50.620;3.400;2022-07-10T04:58:40;22.80;57.40
46754;DHT22;32500;50.620;3.400;2022-07-10T05:01:06;22.80;57.40
46754;DHT22;32500;50.620;3.400;2022-07-10T05:03:32;22.90;57.40
46754;DHT22;32500;50.620;3.400;2022-07-10T05:05:57;22.90;57.20
46754;DHT22;32500;50.620;3.400;2022-07-10T05:08:23;22.90;57.50
46754;DHT22;32500;50.620;3.400;2022-07-10T05:10:49;22.90;56.90
46754;DHT22;32500;50.620;3.400;2022-07-10T05:13:14;22.90;56.90
46754;DHT22;32500;50.620;3.400;2022-07-10T05:15:40;22.90;56.90
46754;DHT22;32500;50.620;3.400;2022-07-10T05:18:05;22.90;56.90
46754;DHT22;32500;50.620;3.400;2022-07-10T05:20:31;22.90;57.10
46754;DHT22;32500;50.620;3.400;2022-07-10T05:22:57;22.90;57.10
46754;DHT22;32500;50.620;3.400;2022-07-10T05:25:23;22.80;57.10
46754;DHT22;32500;50.620;3.400;2022-07-10T05:27:51;22.90;57.00
46754;DHT22;32500;50.620;3.400;2022-07-10T05:30:17;22.90;57.00
46754;DHT22;32500;50.620;3.400;2022-07-10T05:32:45;22.90;56.90
46754;DHT22;32500;50.620;3.400;2022-07-10T05:35:13;22.90;56.90
46754;DHT22;32500;50.620;3.400;2022-07-10T05:37:39;22.90;56.70
46754;DHT22;32500;50.620;3.400;2022-07-10T05:40:05;22.90;56.70
46754;DHT22;32500;50.620;3.400;2022-07-10T05:42:31;23.00;56.70
46754;DHT22;32500;50.620;3.400;2022-07-10T05:44:56;23.00;56.70
46754;DHT22;32500;50.620;3.400;2022-07-10T05:47:22;23.00;56.60
46754;DHT22;32500;50.620;3.400;2022-07-10T05:49:48;23.00;56.60
46754;DHT22;32500;50.620;3.400;2022-07-10T05:52:13;23.00;56.60
46754;DHT22;32500;50.620;3.400;2022-07-10T05:54:39;23.00;56.60
46754;DHT22;32500;50.620;3.400;2022-07-10T05:57:05;23.00;56.60
46754;DHT22;32500;50.620;3.400;2022-07-10T05:59:34;23.10;56.60
46754;DHT22;32500;50.620;3.400;2022-07-10T06:02:01;23.00;56.70
46754;DHT22;32500;50.620;3.400;2022-07-10T06:04:26;23.00;57.30
46754;DHT22;32500;50.620;3.400;2022-07-10T06:06:52;23.00;56.60
46754;DHT22;32500;50.620;3.400;2022-07-10T06:09:18;23.00;56.50
46754;DHT22;32500;50.620;3.400;2022-07-10T06:11:44;23.00;56.40
46754;DHT22;32500;50.620;3.400;2022-07-10T06:14:12;23.10;56.60
46754;DHT22;32500;50.620;3.400;2022-07-10T06:16:37;23.00;56.50
46754;DHT22;32500;50.620;3.400;2022-07-10T06:19:03;23.10;56.60
46754;DHT22;32500;50.620;3.400;2022-07-10T06:21:29;23.10;56.50
46754;DHT22;32500;50.620;3.400;2022-07-10T06:23:55;23.10;56.60
46754;DHT22;32500;50.620;3.400;2022-07-10T06:26:20;23.10;56.60
46754;DHT22;32500;50.620;3.400;2022-07-10T06:28:46;23.10;56.50
46754;DHT22;32500;50.620;3.400;2022-07-10T06:31:12;23.10;56.60
46754;DHT22;32500;50.620;3.400;2022-07-10T06:33:38;23.10;56.40
46754;DHT22;32500;50.620;3.400;2022-07-10T06:36:04;23.10;56.40
46754;DHT22;32500;50.620;3.400;2022-07-10T06:38:30;23.10;56.30
46754;DHT22;32500;50.620;3.400;2022-07-10T06:40:56;23.10;56.40
46754;DHT22;32500;50.620;3.400;2022-07-10T06:43:21;23.20;56.40
46754;DHT22;32500;50.620;3.400;2022-07-10T06:45:47;23.10;56.40
46754;DHT22;32500;50.620;3.400;2022-07-10T06:48:13;23.20;56.40
46754;DHT22;32500;50.620;3.400;2022-07-10T06:50:40;23.20;56.50
46754;DHT22;32500;50.620;3.400;2022-07-10T06:53:06;23.20;56.20
46754;DHT22;32500;50.620;3.400;2022-07-10T06:55:31;23.20;56.20
46754;DHT22;32500;50.620;3.400;2022-07-10T06:57:58;23.20;56.10
46754;DHT22;32500;50.620;3.400;2022-07-10T07:00:24;23.20;56.10
46754;DHT22;32500;50.620;3.400;2022-07-10T07:02:50;23.20;56.10
46754;DHT22;32500;50.620;3.400;2022-07-10T07:05:16;23.20;56.10
46754;DHT22;32500;50.620;3.400;2022-07-10T07:07:41;23.20;56.10
46754;DHT22;32500;50.620;3.400;2022-07-10T07:10:08;23.20;56.10
46754;DHT22;32500;50.620;3.400;2022-07-10T07:12:34;23.30;56.10
46754;DHT22;32500;50.620;3.400;2022-07-10T07:15:00;23.30;56.00
46754;DHT22;32500;50.620;3.400;2022-07-10T07:17:26;23.20;56.00
46754;DHT22;32500;50.620;3.400;2022-07-10T07:19:59;23.30;56.60
46754;DHT22;32500;50.620;3.400;2022-07-10T07:22:44;23.30;55.90
46754;DHT22;32500;50.620;3.400;2022-07-10T07:25:28;23.30;55.90
46754;DHT22;32500;50.620;3.400;2022-07-10T07:27:54;23.30;56.00
46754;DHT22;32500;50.620;3.400;2022-07-10T07:30:19;23.30;55.80
46754;DHT22;32500;50.620;3.400;2022-07-10T07:32:46;23.30;55.70
46754;DHT22;32500;50.620;3.400;2022-07-10T07:35:14;23.40;55.90
46754;DHT22;32500;50.620;3.400;2022-07-10T07:37:45;23.40;55.80
46754;DHT22;32500;50.620;3.400;2022-07-10T07:40:14;23.40;55.60
46754;DHT22;32500;50.620;3.400;2022-07-10T07:42:41;23.40;55.70
46754;DHT22;32500;50.620;3.400;2022-07-10T07:45:08;23.40;55.50
46754;DHT22;32500;50.620;3.400;2022-07-10T07:50:14;23.40;55.70
46754;DHT22;32500;50.620;3.400;2022-07-10T07:52:40;23.40;55.30
46754;DHT22;32500;50.620;3.400;2022-07-10T07:55:06;23.40;55.50
46754;DHT22;32500;50.620;3.400;2022-07-10T07:57:33;23.40;55.50
46754;DHT22;32500;50.620;3.400;2022-07-10T07:59:58;23.40;55.40
46754;DHT22;32500;50.620;3.400;2022-07-10T08:02:24;23.50;55.20
46754;DHT22;32500;50.620;3.400;2022-07-10T08:04:49;23.50;55.50
46754;DHT22;32500;50.620;3.400;2022-07-10T08:07:15;23.50;55.50
46754;DHT22;32500;50.620;3.400;2022-07-10T08:09:41;23.50;55.30
46754;DHT22;32500;50.620;3.400;2022-07-10T08:12:09;23.50;55.40
46754;DHT22;32500;50.620;3.400;2022-07-10T08:14:35;23.50;55.40
46754;DHT22;32500;50.620;3.400;2022-07-10T08:17:01;23.50;55.30
46754;DHT22;32500;50.620;3.400;2022-07-10T08:19:26;23.50;55.20
46754;DHT22;32500;50.620;3.400;2022-07-10T08:21:52;23.50;55.20
46754;DHT22;32500;50.620;3.400;2022-07-10T08:24:17;23.50;55.20
46754;DHT22;32500;50.620;3.400;2022-07-10T08:26:44;23.60;55.20
46754;DHT22;32500;50.620;3.400;2022-07-10T08:29:09;23.50;55.20
46754;DHT22;32500;50.620;3.400;2022-07-10T08:31:35;23.60;55.20
46754;DHT22;32500;50.620;3.400;2022-07-10T08:34:01;23.60;55.10
46754;DHT22;32500;50.620;3.400;2022-07-10T08:36:26;23.60;55.10
46754;DHT22;32500;50.620;3.400;2022-07-10T08:38:53;23.60;55.00
46754;DHT22;32500;50.620;3.400;2022-07-10T08:41:26;23.60;55.10
46754;DHT22;32500;50.620;3.400;2022-07-10T08:43:52;23.60;55.10
46754;DHT22;32500;50.620;3.400;2022-07-10T08:46:18;23.60;55.00
46754;DHT22;32500;50.620;3.400;2022-07-10T08:48:48;23.60;54.90
46754;DHT22;32500;50.620;3.400;2022-07-10T08:51:24;23.60;55.00
46754;DHT22;32500;50.620;3.400;2022-07-10T08:53:55;23.60;54.80
46754;DHT22;32500;50.620;3.400;2022-07-10T08:56:21;23.60;55.10
46754;DHT22;32500;50.620;3.400;2022-07-10T08:58:47;23.70;54.90
46754;DHT22;32500;50.620;3.400;2022-07-10T09:01:15;23.60;54.90
46754;DHT22;32500;50.620;3.400;2022-07-10T09:03:41;23.70;55.00
46754;DHT22;32500;50.620;3.400;2022-07-10T09:06:06;23.70;54.90
46754;DHT22;32500;50.620;3.400;2022-07-10T09:08:32;23.70;54.80
46754;DHT22;32500;50.620;3.400;2022-07-10T09:11:18;23.70;54.80
46754;DHT22;32500;50.620;3.400;2022-07-10T09:16:23;23.60;54.90
46754;DHT22;32500;50.620;3.400;2022-07-10T09:18:49;23.70;54.80
46754;DHT22;32500;50.620;3.400;2022-07-10T09:21:15;23.70;54.90
46754;DHT22;32500;50.620;3.400;2022-07-10T09:23:41;23.70;55.00
46754;DHT22;32500;50.620;3.400;2022-07-10T09:26:07;23.70;55.00
46754;DHT22;32500;50.620;3.400;2022-07-10T09:28:33;23.70;55.00
46754;DHT22;32500;50.620;3.400;2022-07-10T09:30:58;23.70;54.90
46754;DHT22;32500;50.620;3.400;2022-07-10T09:33:25;23.70;54.80
46754;DHT22;32500;50.620;3.400;2022-07-10T09:41:14;23.80;54.70
46754;DHT22;32500;50.620;3.400;2022-07-10T09:43:48;23.80;54.70
46754;DHT22;32500;50.620;3.400;2022-07-10T09:46:15;23.80;54.70
46754;DHT22;32500;50.620;3.400;2022-07-10T09:48:41;23.80;54.60
46754;DHT22;32500;50.620;3.400;2022-07-10T09:51:08;23.80;54.60
46754;DHT22;32500;50.620;3.400;2022-07-10T09:53:43;23.90;54.60
46754;DHT22;32500;50.620;3.400;2022-07-10T09:56:11;23.90;54.50
46754;DHT22;32500;50.620;3.400;2022-07-10T09:58:38;23.90;54.40
46754;DHT22;32500;50.620;3.400;2022-07-10T10:01:08;23.90;54.40
46754;DHT22;32500;50.620;3.400;2022-07-10T10:03:35;24.00;54.40
46754;DHT22;32500;50.620;3.400;2022-07-10T10:06:11;24.00;54.40
46754;DHT22;32500;50.620;3.400;2022-07-10T10:11:28;24.00;54.20
46754;DHT22;32500;50.620;3.400;2022-07-10T10:13:57;24.00;54.20
46754;DHT22;32500;50.620;3.400;2022-07-10T10:16:25;24.00;54.20
46754;DHT22;32500;50.620;3.400;2022-07-10T10:18:53;24.10;54.20
46754;DHT22;32500;50.620;3.400;2022-07-10T10:21:39;24.10;54.10
46754;DHT22;32500;50.620;3.400;2022-07-10T10:24:06;24.10;54.10
46754;DHT22;32500;50.620;3.400;2022-07-10T10:26:32;24.10;54.00
46754;DHT22;32500;50.620;3.400;2022-07-10T10:28:59;24.10;54.00
46754;DHT22;32500;50.620;3.400;2022-07-10T10:31:29;24.10;54.10
46754;DHT22;32500;50.620;3.400;2022-07-10T10:33:57;24.10;54.00
46754;DHT22;32500;50.620;3.400;2022-07-10T10:39:10;24.20;54.00
46754;DHT22;32500;50.620;3.400;2022-07-10T10:46:54;24.20;54.00
46754;DHT22;32500;50.620;3.400;2022-07-10T10:49:47;24.20;54.00
46754;DHT22;32500;50.620;3.400;2022-07-10T10:52:14;24.20;54.00
46754;DHT22;32500;50.620;3.400;2022-07-10T10:57:22;24.20;54.00
46754;DHT22;32500;50.620;3.400;2022-07-10T10:59:50;24.20;54.00
46754;DHT22;32500;50.620;3.400;2022-07-10T11:02:26;24.20;54.00
46754;DHT22;32500;50.620;3.400;2022-07-10T11:07:56;24.20;54.10
46754;DHT22;32500;50.620;3.400;2022-07-10T11:13:06;24.30;54.10
46754;DHT22;32500;50.620;3.400;2022-07-10T11:15:40;24.30;54.20
46754;DHT22;32500;50.620;3.400;2022-07-10T11:18:12;24.30;54.20
46754;DHT22;32500;50.620;3.400;2022-07-10T11:26:08;24.30;54.20
46754;DHT22;32500;50.620;3.400;2022-07-10T11:31:09;24.30;54.70
46754;DHT22;32500;50.620;3.400;2022-07-10T11:33:49;24.30;54.10
46754;DHT22;32500;50.620;3.400;2022-07-10T11:36:17;24.30;54.10
46754;DHT22;32500;50.620;3.400;2022-07-10T11:38:44;24.30;54.70
46754;DHT22;32500;50.620;3.400;2022-07-10T11:43:52;24.40;54.10
46754;DHT22;32500;50.620;3.400;2022-07-10T11:46:23;24.40;54.10
46754;DHT22;32500;50.620;3.400;2022-07-10T11:48:51;24.40;54.10
46754;DHT22;32500;50.620;3.400;2022-07-10T11:51:31;24.40;54.10
46754;DHT22;32500;50.620;3.400;2022-07-10T11:54:08;24.40;54.10
46754;DHT22;32500;50.620;3.400;2022-07-10T11:56:37;24.40;54.10
46754;DHT22;32500;50.620;3.400;2022-07-10T11:59:06;24.40;54.00
46754;DHT22;32500;50.620;3.400;2022-07-10T12:01:34;24.40;54.10
46754;DHT22;32500;50.620;3.400;2022-07-10T12:04:05;24.40;54.30
46754;DHT22;32500;50.620;3.400;2022-07-10T12:06:32;24.50;54.10
46754;DHT22;32500;50.620;3.400;2022-07-10T12:09:07;24.50;54.10
46754;DHT22;32500;50.620;3.400;2022-07-10T12:11:33;24.50;54.00
46754;DHT22;32500;50.620;3.400;2022-07-10T12:14:28;24.50;54.00
46754;DHT22;32500;50.620;3.400;2022-07-10T12:16:55;24.50;54.10
46754;DHT22;32500;50.620;3.400;2022-07-10T12:19:26;24.50;54.00
46754;DHT22;32500;50.620;3.400;2022-07-10T12:21:57;24.50;54.00
46754;DHT22;32500;50.620;3.400;2022-07-10T12:24:23;24.50;54.00
46754;DHT22;32500;50.620;3.400;2022-07-10T12:26:50;24.50;54.00
46754;DHT22;32500;50.620;3.400;2022-07-10T12:29:24;24.50;54.00
46754;DHT22;32500;50.620;3.400;2022-07-10T12:31:53;24.50;54.00
46754;DHT22;32500;50.620;3.400;2022-07-10T12:34:32;24.50;54.00
46754;DHT22;32500;50.620;3.400;2022-07-10T12:36:58;24.50;54.10
46754;DHT22;32500;50.620;3.400;2022-07-10T12:39:24;24.50;54.10
46754;DHT22;32500;50.620;3.400;2022-07-10T12:41:57;24.50;54.10
46754;DHT22;32500;50.620;3.400;2022-07-10T12:44:49;24.50;54.10
46754;DHT22;32500;50.620;3.400;2022-07-10T12:47:17;24.50;54.10
46754;DHT22;32500;50.620;3.400;2022-07-10T12:49:57;24.50;54.20
46754;DHT22;32500;50.620;3.400;2022-07-10T12:52:34;24.50;54.30
46754;DHT22;32500;50.620;3.400;2022-07-10T12:55:20;24.50;54.30
46754;DHT22;32500;50.620;3.400;2022-07-10T12:57:52;24.50;54.30
46754;DHT22;32500;50.620;3.400;2022-07-10T13:00:29;24.50;54.30
46754;DHT22;32500;50.620;3.400;2022-07-10T13:03:05;24.50;54.30
46754;DHT22;32500;50.620;3.400;2022-07-10T13:05:37;24.50;54.30
46754;DHT22;32500;50.620;3.400;2022-07-10T13:10:43;24.50;54.30
46754;DHT22;32500;50.620;3.400;2022-07-10T13:13:10;24.60;54.30
46754;DHT22;32500;50.620;3.400;2022-07-10T13:15:36;24.50;54.30
46754;DHT22;32500;50.620;3.400;2022-07-10T13:18:17;24.50;54.40
46754;DHT22;32500;50.620;3.400;2022-07-10T13:20:50;24.50;54.30
46754;DHT22;32500;50.620;3.400;2022-07-10T13:23:16;24.60;54.40
46754;DHT22;32500;50.620;3.400;2022-07-10T13:25:42;24.60;54.40
46754;DHT22;32500;50.620;3.400;2022-07-10T13:28:09;24.60;54.40
46754;DHT22;32500;50.620;3.400;2022-07-10T13:30:37;24.60;54.40
46754;DHT22;32500;50.620;3.400;2022-07-10T13:33:02;24.60;54.50
46754;DHT22;32500;50.620;3.400;2022-07-10T13:35:29;24.70;54.50
46754;DHT22;32500;50.620;3.400;2022-07-10T13:37:59;24.60;54.40
46754;DHT22;32500;50.620;3.400;2022-07-10T13:40:29;24.60;54.50
46754;DHT22;32500;50.620;3.400;2022-07-10T13:42:56;24.60;54.40
46754;DHT22;32500;50.620;3.400;2022-07-10T13:45:23;24.60;54.50
46754;DHT22;32500;50.620;3.400;2022-07-10T13:47:50;24.70;54.50
46754;DHT22;32500;50.620;3.400;2022-07-10T13:50:17;24.60;54.50
46754;DHT22;32500;50.620;3.400;2022-07-10T13:52:42;24.70;54.50
46754;DHT22;32500;50.620;3.400;2022-07-10T13:55:09;24.70;54.50
46754;DHT22;32500;50.620;3.400;2022-07-10T13:57:35;24.70;54.50
46754;DHT22;32500;50.620;3.400;2022-07-10T14:00:01;24.70;54.50
46754;DHT22;32500;50.620;3.400;2022-07-10T14:02:27;24.70;54.50
46754;DHT22;32500;50.620;3.400;2022-07-10T14:04:53;24.70;54.50
46754;DHT22;32500;50.620;3.400;2022-07-10T14:07:18;24.70;54.60
46754;DHT22;32500;50.620;3.400;2022-07-10T14:09:44;24.70;54.60
46754;DHT22;32500;50.620;3.400;2022-07-10T14:12:10;24.70;54.60
46754;DHT22;32500;50.620;3.400;2022-07-10T14:14:36;24.70;54.60
46754;DHT22;32500;50.620;3.400;2022-07-10T14:17:02;24.70;54.60
46754;DHT22;32500;50.620;3.400;2022-07-10T14:19:27;24.70;54.60
46754;DHT22;32500;50.620;3.400;2022-07-10T14:21:53;24.70;54.70
46754;DHT22;32500;50.620;3.400;2022-07-10T14:24:19;24.70;54.70
46754;DHT22;32500;50.620;3.400;2022-07-10T14:26:45;24.70;54.70
46754;DHT22;32500;50.620;3.400;2022-07-10T14:29:12;24.70;54.70
46754;DHT22;32500;50.620;3.400;2022-07-10T14:31:38;24.70;54.70
46754;DHT22;32500;50.620;3.400;2022-07-10T14:34:04;24.70;54.70
46754;DHT22;32500;50.620;3.400;2022-07-10T14:36:31;24.70;54.70
46754;DHT22;32500;50.620;3.400;2022-07-10T14:38:57;24.70;54.70
46754;DHT22;32500;50.620;3.400;2022-07-10T14:41:24;24.70;54.80
46754;DHT22;32500;50.620;3.400;2022-07-10T14:43:51;24.70;54.70
46754;DHT22;32500;50.620;3.400;2022-07-10T14:46:17;24.80;54.80
46754;DHT22;32500;50.620;3.400;2022-07-10T14:48:42;24.80;54.70
46754;DHT22;32500;50.620;3.400;2022-07-10T14:51:08;24.80;54.80
46754;DHT22;32500;50.620;3.400;2022-07-10T14:53:35;24.80;54.80
46754;DHT22;32500;50.620;3.400;2022-07-10T14:56:04;24.80;54.80
46754;DHT22;32500;50.620;3.400;2022-07-10T14:58:31;24.80;54.80
46754;DHT22;32500;50.620;3.400;2022-07-10T15:00:56;24.80;54.80
46754;DHT22;32500;50.620;3.400;2022-07-10T15:03:22;24.80;54.80
46754;DHT22;32500;50.620;3.400;2022-07-10T15:05:48;24.80;54.90
46754;DHT22;32500;50.620;3.400;2022-07-10T15:08:19;24.80;54.80
46754;DHT22;32500;50.620;3.400;2022-07-10T15:10:44;24.80;54.90
46754;DHT22;32500;50.620;3.400;2022-07-10T15:13:12;24.80;54.90
46754;DHT22;32500;50.620;3.400;2022-07-10T15:15:37;24.80;55.50
46754;DHT22;32500;50.620;3.400;2022-07-10T15:18:03;24.80;54.90
46754;DHT22;32500;50.620;3.400;2022-07-10T15:20:29;24.80;54.80
46754;DHT22;32500;50.620;3.400;2022-07-10T15:22:54;24.80;54.90
46754;DHT22;32500;50.620;3.400;2022-07-10T15:25:20;24.80;54.90
46754;DHT22;32500;50.620;3.400;2022-07-10T15:27:46;24.80;54.90
46754;DHT22;32500;50.620;3.400;2022-07-10T15:30:12;24.80;54.90
46754;DHT22;32500;50.620;3.400;2022-07-10T15:32:38;24.80;54.90
46754;DHT22;32500;50.620;3.400;2022-07-10T15:35:04;24.80;54.90
46754;DHT22;32500;50.620;3.400;2022-07-10T15:37:30;24.80;55.00
46754;DHT22;32500;50.620;3.400;2022-07-10T15:39:56;24.90;55.00
46754;DHT22;32500;50.620;3.400;2022-07-10T15:42:22;24.80;55.00
46754;DHT22;32500;50.620;3.400;2022-07-10T15:44:47;24.80;55.00
46754;DHT22;32500;50.620;3.400;2022-07-10T15:47:13;24.80;55.10
46754;DHT22;32500;50.620;3.400;2022-07-10T15:49:39;24.80;55.00
46754;DHT22;32500;50.620;3.400;2022-07-10T15:52:05;24.80;55.10
46754;DHT22;32500;50.620;3.400;2022-07-10T15:54:31;24.80;55.10
46754;DHT22;32500;50.620;3.400;2022-07-10T15:56:57;24.80;55.10
46754;DHT22;32500;50.620;3.400;2022-07-10T15:59:22;24.90;55.10
46754;DHT22;32500;50.620;3.400;2022-07-10T16:01:52;24.90;55.10
46754;DHT22;32500;50.620;3.400;2022-07-10T16:04:19;24.90;55.10
46754;DHT22;32500;50.620;3.400;2022-07-10T16:06:45;24.90;55.10
46754;DHT22;32500;50.620;3.400;2022-07-10T16:09:11;24.90;55.10
46754;DHT22;32500;50.620;3.400;2022-07-10T16:11:36;24.90;55.10
46754;DHT22;32500;50.620;3.400;2022-07-10T16:14:02;24.90;55.10